Adel, Georgia
Current Conditions -  °F | °C
As of 1:58 PM on Thursday 18 Dec 2014 (Local Time) from KVAD Reporting Station
Scattered Clouds Scattered Clouds  
Wind Chill: 60°   Ceiling: Unl
Heat Index: 60°   Visibility: 10mi
Dew Point: 37°   Wind: 2mph
Humidity: 43%   Direction: NA
Pressure: 30.11"   Gusts: NA
Location:  31.14°N, 83.42°W
Report Text: KVAD 181858Z AUTO VRB02KT 10SM SCT210 16/03 A3011 RMK AO2 SLP199 T01550028 $
Loading
Personal Weather Stations






























Interactive Weather Map New forecast layout! Learn more

10-Day Weather Forecast

Advertisements
Track Severe Weather on mobile